Time;durP1;ratioP1;P1;durP2;ratioP2;P2;SDS_P1;SDS_P2;PMS_P1;PMS_P2;Temp;Humidity;BMP_temperature;BMP_pressure;BME280_temperature;BME280_humidity;BME280_pressure;Samples;Min_cycle;Max_cycle;Signal;HPM_P1;HPM_P2
2024/01/27 00:00:17;;;;;;;2.87;1.53;;;;;;;18.57;54.30;102182.13;5065140;28;20183;-66
2024/01/27 00:02:43;;;;;;;2.80;1.30;;;;;;;18.57;53.93;102182.13;5070568;28;20193;-65
2024/01/27 00:05:08;;;;;;;2.40;1.20;;;;;;;18.57;54.54;102175.56;5054676;28;20171;-65
2024/01/27 00:07:34;;;;;;;4.00;1.37;;;;;;;18.55;54.34;102170.19;5037083;28;20425;-65
2024/01/27 00:09:59;;;;;;;3.10;1.43;;;;;;;18.54;54.34;102168.50;5072221;28;20179;-65
2024/01/27 00:12:25;;;;;;;1.90;1.00;;;;;;;18.57;53.64;102164.97;5067738;28;20183;-66
2024/01/27 00:14:50;;;;;;;2.10;1.20;;;;;;;18.53;54.35;102169.69;5043710;28;20210;-64
2024/01/27 00:17:16;;;;;;;2.63;1.17;;;;;;;18.55;54.13;102175.06;5051717;28;20185;-65
2024/01/27 00:19:41;;;;;;;3.60;1.50;;;;;;;18.57;54.33;102184.97;5055907;28;20190;-65
2024/01/27 00:22:07;;;;;;;2.33;1.30;;;;;;;18.59;53.78;102184.66;5055020;28;20265;-65
2024/01/27 00:24:32;;;;;;;2.80;1.33;;;;;;;18.54;54.32;102184.81;5056030;28;20170;-65
2024/01/27 00:26:58;;;;;;;3.30;1.57;;;;;;;18.49;54.45;102177.25;5065656;28;20737;-65
2024/01/27 00:29:23;;;;;;;2.83;1.37;;;;;;;18.54;54.04;102182.81;5053428;28;20195;-65
2024/01/27 00:31:50;;;;;;;2.83;1.40;;;;;;;18.55;54.15;102170.19;5054471;28;20197;-66
2024/01/27 00:34:16;;;;;;;3.93;1.53;;;;;;;18.50;54.37;102164.63;5055624;28;20202;-65
2024/01/27 00:36:48;;;;;;;2.97;1.57;;;;;;;18.52;54.45;102164.31;5054521;28;20444;-65
2024/01/27 00:39:14;;;;;;;2.73;1.27;;;;;;;18.52;54.25;102178.59;5057150;28;20257;-65
2024/01/27 00:41:40;;;;;;;5.20;1.57;;;;;;;18.52;54.14;102182.28;5071473;28;20436;-66
2024/01/27 00:44:05;;;;;;;2.33;1.30;;;;;;;18.51;53.99;102189.19;5055876;28;20424;-65
2024/01/27 00:46:30;;;;;;;4.00;1.73;;;;;;;18.48;54.27;102187.03;5039415;28;20175;-66
2024/01/27 00:48:56;;;;;;;3.10;1.37;;;;;;;18.49;54.38;102185.84;5068893;28;20186;-66
2024/01/27 00:51:21;;;;;;;4.93;1.73;;;;;;;18.50;54.59;102187.50;5072230;28;20178;-65
2024/01/27 00:53:47;;;;;;;3.07;1.80;;;;;;;18.49;54.22;102182.97;5055417;28;20255;-65
2024/01/27 00:56:12;;;;;;;2.57;1.50;;;;;;;18.49;54.37;102177.25;5055871;28;20170;-65
2024/01/27 00:58:37;;;;;;;4.03;1.70;;;;;;;18.50;54.20;102181.78;5072439;28;20189;-65
2024/01/27 01:01:03;;;;;;;2.40;1.30;;;;;;;18.49;54.13;102184.97;5071771;28;20182;-65
2024/01/27 01:03:29;;;;;;;4.20;1.70;;;;;;;18.48;54.31;102186.16;5072447;28;20170;-64
2024/01/27 01:05:54;;;;;;;4.03;1.43;;;;;;;18.49;54.29;102202.16;5071207;28;20247;-64
2024/01/27 01:08:19;;;;;;;3.63;1.53;;;;;;;18.47;54.37;102204.50;5055330;28;20167;-65
2024/01/27 01:10:45;;;;;;;4.80;1.80;;;;;;;18.47;54.03;102195.94;5070054;28;20170;-65
2024/01/27 01:13:11;;;;;;;3.80;1.50;;;;;;;18.46;54.13;102197.94;5034424;28;20186;-66
2024/01/27 01:15:36;;;;;;;2.67;1.47;;;;;;;18.45;54.04;102201.97;5055387;28;20207;-65
2024/01/27 01:18:02;;;;;;;3.20;1.33;;;;;;;18.44;54.22;102199.44;5089982;28;20159;-65
2024/01/27 01:20:27;;;;;;;3.07;1.60;;;;;;;18.44;54.44;102206.03;5070245;28;20178;-64
2024/01/27 01:22:53;;;;;;;2.67;1.10;;;;;;;18.45;54.29;102201.97;5070097;28;20194;-65
2024/01/27 01:25:18;;;;;;;2.43;1.53;;;;;;;18.42;54.73;102213.25;5070310;28;20227;-66
2024/01/27 01:27:45;;;;;;;3.23;1.30;;;;;;;18.42;54.50;102219.78;5068479;28;20226;-65
2024/01/27 01:30:10;;;;;;;2.07;1.20;;;;;;;18.43;54.24;102232.09;5036681;28;20166;-65
2024/01/27 01:32:36;;;;;;;2.63;1.53;;;;;;;18.42;54.52;102225.50;5052676;28;20471;-65
2024/01/27 01:35:01;;;;;;;3.40;1.70;;;;;;;18.45;54.45;102229.72;5053686;28;20263;-64
2024/01/27 01:37:27;;;;;;;2.20;1.27;;;;;;;18.40;54.64;102225.00;5041272;28;20174;-65
2024/01/27 01:39:52;;;;;;;2.93;1.40;;;;;;;18.43;54.71;102217.78;5056987;28;20189;-66
2024/01/27 01:42:20;;;;;;;3.63;1.70;;;;;;;18.39;54.49;102217.63;5034344;28;20186;-65
2024/01/27 01:44:45;;;;;;;3.17;1.63;;;;;;;18.42;53.99;102227.53;5040606;28;20598;-65
2024/01/27 01:47:11;;;;;;;2.57;1.40;;;;;;;18.41;54.31;102237.31;5071096;28;20447;-65
2024/01/27 01:49:36;;;;;;;3.17;1.50;;;;;;;18.39;54.28;102234.78;5071777;28;20231;-66
2024/01/27 01:52:02;;;;;;;3.23;1.60;;;;;;;18.39;54.61;102237.63;5055287;28;20247;-65
2024/01/27 01:54:27;;;;;;;3.27;1.20;;;;;;;18.38;54.22;102247.41;5070864;28;20279;-65
2024/01/27 01:56:57;;;;;;;1.93;1.23;;;;;;;18.41;54.21;102240.16;5054658;28;20163;-65
2024/01/27 01:59:23;;;;;;;3.13;1.77;;;;;;;18.37;54.37;102234.25;5045761;28;20944;-65
2024/01/27 02:01:48;;;;;;;2.57;1.50;;;;;;;18.37;54.44;102245.69;5057792;28;20433;-65
2024/01/27 02:04:14;;;;;;;3.10;1.43;;;;;;;18.36;54.31;102255.44;5067591;28;20550;-65
2024/01/27 02:06:39;;;;;;;2.50;1.20;;;;;;;18.36;54.53;102254.63;5054178;28;20190;-65
2024/01/27 02:09:05;;;;;;;3.07;1.37;;;;;;;18.38;54.03;102253.13;5071492;28;20181;-65
2024/01/27 02:11:30;;;;;;;2.30;1.30;;;;;;;18.36;54.53;102258.31;5038308;28;20178;-65
2024/01/27 02:13:56;;;;;;;2.93;1.47;;;;;;;18.36;54.22;102261.16;5070212;28;20206;-65
2024/01/27 02:16:21;;;;;;;3.77;1.50;;;;;;;18.37;54.01;102262.84;5089063;28;20194;-65
2024/01/27 02:18:47;;;;;;;2.50;1.60;;;;;;;18.36;54.31;102266.88;5036496;28;20201;-66
2024/01/27 02:21:12;;;;;;;2.23;1.20;;;;;;;18.34;54.64;102259.81;5055183;28;20572;-66
2024/01/27 02:23:38;;;;;;;3.57;1.60;;;;;;;18.35;54.08;102265.19;5074483;28;20162;-65
2024/01/27 02:26:03;;;;;;;2.47;1.40;;;;;;;18.36;54.26;102254.63;5073074;28;20182;-65
2024/01/27 02:28:31;;;;;;;2.43;1.43;;;;;;;18.34;54.75;102268.38;5092566;28;20552;-65
2024/01/27 02:30:57;;;;;;;3.07;1.40;;;;;;;18.33;54.52;102279.00;5058945;28;20261;-65
2024/01/27 02:33:23;;;;;;;2.70;1.40;;;;;;;18.36;54.00;102286.91;5057551;28;20523;-66
2024/01/27 02:35:48;;;;;;;2.73;1.20;;;;;;;18.31;54.47;102277.63;5072315;28;20277;-65
2024/01/27 02:38:14;;;;;;;3.17;1.53;;;;;;;18.30;54.21;102279.63;5058164;28;20186;-65
2024/01/27 02:40:39;;;;;;;3.40;1.47;;;;;;;18.33;54.20;102278.16;5074162;28;20514;-65
2024/01/27 02:43:04;;;;;;;2.60;1.60;;;;;;;18.32;54.24;102270.72;5054763;28;20187;-65
2024/01/27 02:45:30;;;;;;;2.67;1.50;;;;;;;18.33;54.42;102273.28;5040905;28;20209;-65
2024/01/27 02:47:55;;;;;;;3.00;1.73;;;;;;;18.35;53.73;102282.38;5058232;28;20201;-65
2024/01/27 02:50:21;;;;;;;2.83;1.50;;;;;;;18.33;54.18;102289.59;5073271;28;20193;-65
2024/01/27 02:52:46;;;;;;;2.27;1.13;;;;;;;18.30;54.32;102284.50;5039378;28;20190;-65
2024/01/27 02:55:12;;;;;;;3.07;1.40;;;;;;;18.29;54.25;102277.94;5091093;28;20198;-65
2024/01/27 02:57:37;;;;;;;2.13;1.30;;;;;;;18.29;54.49;102279.94;5056625;28;20170;-67
2024/01/27 03:00:04;;;;;;;3.70;1.47;;;;;;;18.29;53.98;102277.09;5056592;28;20185;-65
2024/01/27 03:02:30;;;;;;;2.30;1.40;;;;;;;18.30;53.93;102268.19;5055909;28;20187;-65
2024/01/27 03:04:55;;;;;;;2.30;1.30;;;;;;;18.26;53.86;102272.88;5056789;28;20465;-65
2024/01/27 03:07:21;;;;;;;2.50;1.27;;;;;;;18.28;54.52;102275.41;5059914;28;20542;-65
2024/01/27 03:09:46;;;;;;;3.60;1.40;;;;;;;18.31;54.51;102286.19;5057160;28;20182;-66
2024/01/27 03:12:12;;;;;;;2.97;1.47;;;;;;;18.30;54.13;102285.34;5056581;28;20240;-66
2024/01/27 03:14:37;;;;;;;2.67;1.40;;;;;;;18.26;54.40;102287.16;5056016;28;20194;-65
2024/01/27 03:17:03;;;;;;;3.03;1.60;;;;;;;18.29;54.41;102288.53;5031280;28;20203;-65
2024/01/27 03:19:29;;;;;;;2.50;1.50;;;;;;;18.27;53.90;102300.28;5081947;28;20202;-65
2024/01/27 03:21:54;;;;;;;2.90;1.57;;;;;;;18.27;54.27;102291.72;5056584;28;20186;-65
2024/01/27 03:24:20;;;;;;;3.73;1.57;;;;;;;18.28;54.00;102290.56;5071688;28;20198;-65
2024/01/27 03:26:45;;;;;;;4.27;1.80;;;;;;;18.26;54.05;102290.03;5039946;28;20230;-66
2024/01/27 03:29:10;;;;;;;3.70;1.70;;;;;;;18.27;53.77;102291.72;5057132;28;20170;-65
2024/01/27 03:31:36;;;;;;;2.50;1.47;;;;;;;18.27;53.90;102291.72;5053339;28;20190;-65
2024/01/27 03:34:02;;;;;;;2.63;1.70;;;;;;;18.25;54.33;102294.06;5057122;28;20198;-65
2024/01/27 03:36:27;;;;;;;2.53;1.40;;;;;;;18.23;54.25;102292.72;5040023;28;20194;-65
2024/01/27 03:38:53;;;;;;;3.13;1.60;;;;;;;18.26;53.67;102287.16;5053513;28;20256;-65
2024/01/27 03:41:18;;;;;;;2.40;1.23;;;;;;;18.24;54.00;102289.53;5053919;28;20170;-65
2024/01/27 03:43:44;;;;;;;3.73;1.47;;;;;;;18.23;53.99;102287.84;5056277;28;20374;-65
2024/01/27 03:46:09;;;;;;;2.73;1.63;;;;;;;18.23;54.08;102287.00;5036225;28;20242;-65
2024/01/27 03:48:35;;;;;;;3.30;1.60;;;;;;;18.23;54.09;102301.28;5037789;28;20191;-65
2024/01/27 03:51:01;;;;;;;2.30;1.43;;;;;;;18.24;54.23;102300.97;5073629;28;20187;-64
2024/01/27 03:53:26;;;;;;;3.43;1.67;;;;;;;18.23;53.76;102290.72;5073408;28;20185;-65
2024/01/27 03:55:52;;;;;;;3.57;1.40;;;;;;;18.24;54.16;102297.25;5059329;28;20829;-65
2024/01/27 03:58:18;;;;;;;2.10;1.23;;;;;;;18.21;54.07;102304.47;5056218;28;20199;-65
2024/01/27 04:00:43;;;;;;;4.27;1.67;;;;;;;18.22;54.06;102305.31;5054467;28;20486;-66
2024/01/27 04:03:09;;;;;;;2.83;1.57;;;;;;;18.22;54.13;102305.31;5057823;28;20217;-65
2024/01/27 04:05:35;;;;;;;2.67;1.53;;;;;;;18.22;54.00;102311.03;5090525;28;20206;-64
2024/01/27 04:08:00;;;;;;;2.33;1.47;;;;;;;18.21;53.86;102315.09;5071733;28;20447;-65
2024/01/27 04:10:25;;;;;;;3.50;1.70;;;;;;;18.23;54.31;102318.44;5055013;28;20193;-66
2024/01/27 04:12:51;;;;;;;2.50;1.37;;;;;;;18.22;53.78;102325.34;5051151;28;20187;-65
2024/01/27 04:15:16;;;;;;;3.70;1.60;;;;;;;18.21;54.01;102323.66;5054578;28;20214;-65
2024/01/27 04:17:42;;;;;;;3.33;1.77;;;;;;;18.22;53.69;102329.03;5037876;28;20182;-65
2024/01/27 04:20:08;;;;;;;2.50;1.50;;;;;;;18.21;53.93;102321.63;5056136;28;20191;-65
2024/01/27 04:22:34;;;;;;;2.60;1.63;;;;;;;18.21;53.98;102330.19;5071521;28;20194;-64
2024/01/27 04:24:59;;;;;;;2.87;1.53;;;;;;;18.20;54.10;102337.09;5055900;28;20420;-65
2024/01/27 04:27:27;;;;;;;2.93;1.57;;;;;;;18.23;54.10;102330.75;5070995;28;20291;-65
2024/01/27 04:29:52;;;;;;;2.60;1.50;;;;;;;18.21;53.54;102332.25;5040838;28;20170;-65
2024/01/27 04:32:18;;;;;;;3.43;1.30;;;;;;;18.19;53.94;102329.69;5057388;28;20860;-65
2024/01/27 04:34:43;;;;;;;3.57;1.60;;;;;;;18.23;54.07;102327.88;5038511;28;20547;-65
2024/01/27 04:37:09;;;;;;;3.83;1.60;;;;;;;18.21;53.62;102332.25;5053990;28;20174;-66
2024/01/27 04:39:34;;;;;;;2.83;1.60;;;;;;;18.22;53.90;102340.47;5071417;28;20657;-65
2024/01/27 04:42:00;;;;;;;3.43;1.40;;;;;;;18.20;53.72;102341.97;5038511;28;20810;-65
2024/01/27 04:44:25;;;;;;;2.90;1.40;;;;;;;18.20;53.92;102331.38;5037807;28;20174;-65
2024/01/27 04:46:50;;;;;;;3.30;1.83;;;;;;;18.21;53.77;102330.19;5070440;28;20186;-65
2024/01/27 04:49:16;;;;;;;2.73;1.53;;;;;;;18.20;53.74;102324.81;5055213;28;20185;-66
2024/01/27 04:51:41;;;;;;;2.93;1.50;;;;;;;18.19;53.84;102323.13;5071838;28;20175;-65
2024/01/27 04:54:08;;;;;;;3.20;1.70;;;;;;;18.20;53.92;102331.38;5057448;28;20251;-65
2024/01/27 04:56:33;;;;;;;1.87;1.23;;;;;;;18.20;54.19;102333.38;5037795;28;20653;-65
2024/01/27 04:58:59;;;;;;;4.30;1.50;;;;;;;18.20;53.89;102330.53;5055069;28;20468;-65
2024/01/27 05:01:24;;;;;;;3.60;1.70;;;;;;;18.20;54.01;102342.81;5056874;28;20314;-65
2024/01/27 05:03:49;;;;;;;3.00;1.30;;;;;;;18.20;53.99;102331.38;5054709;28;20495;-65
2024/01/27 05:06:15;;;;;;;2.10;1.40;;;;;;;18.19;53.70;102324.00;5070710;28;20524;-65
2024/01/27 05:08:41;;;;;;;2.87;1.90;;;;;;;18.22;53.73;102328.19;5067514;28;20170;-66
2024/01/27 05:11:06;;;;;;;2.87;1.50;;;;;;;18.21;53.83;102321.63;5087890;28;20638;-65
2024/01/27 05:13:32;;;;;;;3.43;1.77;;;;;;;18.22;53.40;102331.06;5056353;28;20206;-66
2024/01/27 05:15:57;;;;;;;2.33;1.50;;;;;;;18.20;53.66;102325.66;5052387;28;20516;-65
2024/01/27 05:18:23;;;;;;;2.43;1.30;;;;;;;18.23;53.92;102316.44;5033439;28;20179;-65
2024/01/27 05:20:48;;;;;;;2.93;1.73;;;;;;;18.22;53.75;102323.31;5051619;28;20174;-65
2024/01/27 05:23:13;;;;;;;2.00;1.20;;;;;;;18.21;53.58;102323.66;5045649;28;20177;-65
2024/01/27 05:25:39;;;;;;;2.53;1.40;;;;;;;18.20;53.78;102328.53;5054718;28;20285;-65
2024/01/27 05:28:05;;;;;;;2.23;1.27;;;;;;;18.21;53.58;102318.78;5054748;28;20229;-65
2024/01/27 05:30:30;;;;;;;2.40;1.30;;;;;;;18.19;53.88;102318.28;5057028;28;20280;-65
2024/01/27 05:32:56;;;;;;;3.40;1.60;;;;;;;18.22;53.54;102319.63;5054453;28;20608;-65
2024/01/27 05:35:21;;;;;;;3.07;1.70;;;;;;;18.22;53.67;102317.59;5056802;28;20228;-65
2024/01/27 05:37:47;;;;;;;3.10;1.53;;;;;;;18.21;53.78;102321.63;5054794;28;20537;-66
2024/01/27 05:40:12;;;;;;;2.57;1.17;;;;;;;18.22;53.65;102323.31;5053983;28;20552;-66
2024/01/27 05:42:40;;;;;;;5.20;1.30;;;;;;;18.21;53.54;102315.91;5065645;28;20182;-66
2024/01/27 05:45:06;;;;;;;3.17;1.77;;;;;;;18.24;53.49;102320.13;5071054;28;20187;-64
2024/01/27 05:47:32;;;;;;;3.30;1.80;;;;;;;18.22;53.75;102313.91;5054148;28;20441;-65
2024/01/27 05:49:57;;;;;;;3.07;1.80;;;;;;;18.21;53.36;102323.66;5068396;28;20437;-65
2024/01/27 05:52:22;;;;;;;2.67;1.60;;;;;;;18.31;53.17;102321.34;5050902;28;20189;-66
2024/01/27 05:54:48;;;;;;;2.87;1.50;;;;;;;18.26;53.12;102323.50;5055204;28;20279;-65
2024/01/27 05:57:13;;;;;;;3.10;1.67;;;;;;;18.23;53.71;102330.75;5058278;28;20165;-66
2024/01/27 05:59:39;;;;;;;2.50;1.50;;;;;;;18.24;53.37;102335.28;5058464;28;20191;-66
2024/01/27 06:02:05;;;;;;;2.50;1.50;;;;;;;18.24;53.48;102337.28;5069320;28;20243;-66
2024/01/27 06:04:31;;;;;;;2.10;1.33;;;;;;;18.26;53.56;102340.66;5040952;28;20580;-66
2024/01/27 06:06:56;;;;;;;2.53;1.60;;;;;;;18.27;53.11;102348.06;5052635;28;20441;-66
2024/01/27 06:09:22;;;;;;;2.13;1.10;;;;;;;18.28;53.64;102347.75;5056501;28;20556;-65
2024/01/27 06:11:47;;;;;;;2.73;1.30;;;;;;;18.26;53.47;102352.09;5073098;28;20595;-66
2024/01/27 06:14:13;;;;;;;2.70;1.60;;;;;;;18.26;53.66;102352.09;5070142;28;20669;-65
2024/01/27 06:16:38;;;;;;;3.30;1.67;;;;;;;18.25;53.23;102351.25;5043688;28;20877;-65
2024/01/27 06:19:04;;;;;;;3.37;2.00;;;;;;;18.26;53.34;102355.78;5061586;28;20189;-65
2024/01/27 06:21:29;;;;;;;3.60;1.70;;;;;;;18.27;52.99;102354.59;5057305;28;20603;-65
2024/01/27 06:23:55;;;;;;;2.63;1.43;;;;;;;18.23;53.18;102353.59;5074566;28;20543;-65
2024/01/27 06:26:21;;;;;;;3.10;1.60;;;;;;;18.27;53.30;102360.34;5022358;28;20594;-65
2024/01/27 06:28:47;;;;;;;2.60;1.57;;;;;;;18.27;53.51;102360.34;5018046;28;20214;-66
2024/01/27 06:31:14;;;;;;;2.00;1.40;;;;;;;18.32;53.24;102359.34;5041375;28;20473;-65
2024/01/27 06:33:40;;;;;;;2.83;1.47;;;;;;;18.28;53.29;102364.03;5037936;28;20283;-65
2024/01/27 06:36:06;;;;;;;3.07;1.53;;;;;;;18.30;53.10;102365.41;5053356;28;20421;-65
2024/01/27 06:38:31;;;;;;;2.90;1.40;;;;;;;18.28;52.99;102362.03;5054161;28;20313;-65
2024/01/27 06:40:57;;;;;;;2.90;1.37;;;;;;;18.27;53.16;102354.59;5052829;28;20444;-65
2024/01/27 06:43:23;;;;;;;2.77;1.60;;;;;;;18.26;53.39;102355.78;5072207;28;20182;-65
2024/01/27 06:45:48;;;;;;;2.87;1.63;;;;;;;18.26;53.26;102347.22;5053340;28;20673;-64
2024/01/27 06:48:14;;;;;;;2.53;1.57;;;;;;;18.26;53.44;102341.50;5037684;28;20437;-65
2024/01/27 06:50:39;;;;;;;2.20;1.23;;;;;;;18.27;53.14;102346.03;5054207;28;20171;-65
2024/01/27 06:53:04;;;;;;;2.90;1.60;;;;;;;18.31;52.99;102351.97;5029347;28;20194;-65
2024/01/27 06:55:30;;;;;;;4.57;2.07;;;;;;;18.30;52.90;102353.97;5036934;28;20249;-65
2024/01/27 06:57:55;;;;;;;2.73;1.40;;;;;;;18.29;52.81;102360.00;5053029;28;20166;-66
2024/01/27 07:00:21;;;;;;;2.83;1.67;;;;;;;18.31;52.77;102349.94;5035755;28;20668;-64
2024/01/27 07:02:47;;;;;;;2.50;1.50;;;;;;;18.30;53.30;102353.09;5036475;28;20254;-65
2024/01/27 07:05:14;;;;;;;2.27;1.43;;;;;;;18.29;52.83;102351.44;5014591;28;20188;-65
2024/01/27 07:07:39;;;;;;;3.53;2.10;;;;;;;18.28;52.96;102367.75;5015287;28;20241;-64
2024/01/27 07:10:07;;;;;;;2.53;1.57;;;;;;;18.30;53.13;102371.13;5026619;28;20453;-65
2024/01/27 07:12:33;;;;;;;3.63;1.93;;;;;;;18.32;53.05;102363.06;5048313;28;20191;-64
2024/01/27 07:14:59;;;;;;;3.40;1.87;;;;;;;18.33;52.92;102367.66;5053735;28;20473;-65
2024/01/27 07:17:26;;;;;;;2.57;1.60;;;;;;;18.31;53.18;102354.81;5036988;28;20959;-65
2024/01/27 07:19:51;;;;;;;2.40;1.50;;;;;;;18.28;52.87;102350.59;5037224;28;20519;-65
2024/01/27 07:22:17;;;;;;;3.30;1.37;;;;;;;18.32;52.97;102351.63;5053462;28;20459;-65
2024/01/27 07:24:42;;;;;;;2.30;1.47;;;;;;;18.33;52.67;102356.22;5032516;28;20183;-65
2024/01/27 07:27:11;;;;;;;3.20;1.80;;;;;;;18.34;52.63;102354.19;5014807;28;20284;-65
2024/01/27 07:29:37;;;;;;;4.00;2.10;;;;;;;18.35;53.11;102362.44;5073768;28;20193;-65
2024/01/27 07:32:02;;;;;;;2.93;1.63;;;;;;;18.34;52.89;102360.75;5091880;28;20421;-66
2024/01/27 07:34:28;;;;;;;2.40;1.50;;;;;;;18.32;53.25;102365.06;5073246;28;20198;-65
2024/01/27 07:36:53;;;;;;;3.07;1.87;;;;;;;18.35;52.67;102356.72;5072320;28;20529;-65
2024/01/27 07:39:19;;;;;;;2.77;1.60;;;;;;;18.38;52.61;102346.63;5056841;28;20182;-65
2024/01/27 07:41:44;;;;;;;2.80;1.73;;;;;;;18.34;52.76;102337.88;5039757;28;20198;-65
2024/01/27 07:44:10;;;;;;;3.13;1.80;;;;;;;18.33;52.81;102352.50;5056260;28;20186;-65
2024/01/27 07:46:37;;;;;;;2.73;1.40;;;;;;;18.32;53.05;102357.34;5072936;28;20171;-65
2024/01/27 07:49:03;;;;;;;3.20;2.00;;;;;;;18.33;52.92;102361.94;5041948;28;20443;-65
2024/01/27 07:51:29;;;;;;;3.23;1.90;;;;;;;18.34;52.68;102354.19;5072287;28;20508;-66
2024/01/27 07:53:54;;;;;;;2.70;1.67;;;;;;;18.35;52.31;102355.84;5071204;28;20464;-65
2024/01/27 07:56:20;;;;;;;2.47;1.43;;;;;;;18.34;52.66;102348.44;5054681;28;20202;-65
2024/01/27 07:58:45;;;;;;;2.60;1.60;;;;;;;18.32;53.00;102350.78;5053879;28;20187;-65
2024/01/27 08:01:15;;;;;;;3.63;1.70;;;;;;;18.33;52.58;102356.22;5066936;28;20179;-66
2024/01/27 08:03:40;;;;;;;4.13;1.90;;;;;;;18.33;53.05;102359.06;5051176;28;20179;-65
2024/01/27 08:06:09;;;;;;;3.20;1.90;;;;;;;18.36;52.57;102355.53;5054208;28;20441;-65
2024/01/27 08:08:34;;;;;;;2.97;1.60;;;;;;;18.37;52.77;102367.81;5071490;28;20181;-65
2024/01/27 08:11:00;;;;;;;3.30;1.60;;;;;;;18.38;53.09;102367.50;5054879;28;20428;-65
2024/01/27 08:13:25;;;;;;;2.40;1.33;;;;;;;18.34;52.82;102372.19;5054760;28;20225;-65
2024/01/27 08:15:50;;;;;;;2.40;1.50;;;;;;;18.35;52.61;102373.88;5053138;28;20203;-65
2024/01/27 08:18:16;;;;;;;3.83;1.70;;;;;;;18.36;53.15;102383.31;5069911;28;20174;-66
2024/01/27 08:20:41;;;;;;;3.20;1.63;;;;;;;18.39;52.57;102377.75;5038648;28;20194;-65
2024/01/27 08:23:08;;;;;;;3.90;2.00;;;;;;;18.39;52.33;102368.31;5069257;28;20195;-65
2024/01/27 08:25:33;;;;;;;3.00;1.70;;;;;;;18.39;52.48;102372.03;5052733;28;20167;-64
2024/01/27 08:27:59;;;;;;;3.00;1.87;;;;;;;18.34;52.66;102363.59;5050005;28;20481;-65
2024/01/27 08:30:24;;;;;;;2.43;1.60;;;;;;;18.40;52.74;102370.88;5068956;28;20799;-66
2024/01/27 08:32:50;;;;;;;3.23;1.57;;;;;;;18.39;52.58;102369.19;5034531;28;20194;-65
2024/01/27 08:35:15;;;;;;;3.43;1.90;;;;;;;18.40;52.50;102370.00;5052436;28;20211;-65
2024/01/27 08:37:40;;;;;;;3.30;2.00;;;;;;;18.39;52.81;102385.47;5052267;28;20175;-66
2024/01/27 08:40:07;;;;;;;3.27;2.03;;;;;;;18.40;52.84;102373.72;5034968;28;20198;-65
2024/01/27 08:42:32;;;;;;;2.97;2.00;;;;;;;18.39;52.83;102372.03;5051332;28;20262;-65
2024/01/27 08:44:58;;;;;;;2.90;2.00;;;;;;;18.40;52.75;102373.72;5017256;28;21010;-65
2024/01/27 08:47:23;;;;;;;2.70;1.53;;;;;;;18.40;52.51;102370.88;5050208;28;20638;-66
2024/01/27 08:49:49;;;;;;;3.43;1.80;;;;;;;18.40;52.41;102373.72;5050758;28;20177;-65
2024/01/27 08:52:14;;;;;;;2.87;1.80;;;;;;;18.40;52.74;102370.88;5018846;28;20302;-65
2024/01/27 08:54:40;;;;;;;2.77;1.63;;;;;;;18.39;52.78;102374.03;5030633;28;20235;-65
2024/01/27 08:57:06;;;;;;;2.90;1.70;;;;;;;18.42;52.35;102364.81;5031106;28;20901;-65
2024/01/27 08:59:32;;;;;;;3.53;2.07;;;;;;;18.40;52.59;102370.00;5031777;28;20414;-65
2024/01/27 09:01:57;;;;;;;2.90;1.80;;;;;;;18.42;52.33;102373.41;5052161;28;20199;-65
2024/01/27 09:04:22;;;;;;;3.67;1.80;;;;;;;18.40;52.60;102379.44;5052168;28;20583;-65
2024/01/27 09:06:48;;;;;;;3.17;1.77;;;;;;;18.43;52.54;102373.06;5028002;28;20564;-64
2024/01/27 09:09:14;;;;;;;2.80;1.70;;;;;;;18.38;52.80;102356.06;5035725;28;20243;-66
2024/01/27 09:11:39;;;;;;;2.70;1.70;;;;;;;18.41;52.56;102360.28;5037748;28;20183;-65
2024/01/27 09:14:07;;;;;;;3.30;2.00;;;;;;;18.42;52.56;102365.66;5051794;28;20222;-64
2024/01/27 09:16:32;;;;;;;3.10;1.53;;;;;;;18.40;52.71;102365.16;5052646;28;20512;-65
2024/01/27 09:18:58;;;;;;;2.70;1.60;;;;;;;18.41;52.52;102363.97;5046159;28;20442;-65
2024/01/27 09:21:28;;;;;;;3.60;2.17;;;;;;;18.40;52.74;102359.41;5035364;28;20237;-65
2024/01/27 09:23:54;;;;;;;2.20;1.47;;;;;;;18.42;52.80;102362.78;5051412;28;20220;-65
2024/01/27 09:26:19;;;;;;;3.00;1.63;;;;;;;18.45;52.57;102364.13;5038254;28;20486;-64
2024/01/27 09:28:53;;;;;;;3.00;1.70;;;;;;;18.45;52.54;102358.41;5055321;28;20961;-65
2024/01/27 09:31:21;;;;;;;3.80;2.17;;;;;;;18.43;53.04;102361.63;5071635;28;20704;-65
2024/01/27 09:33:48;;;;;;;2.37;1.63;;;;;;;18.43;52.82;102363.63;5056042;28;20412;-64
2024/01/27 09:36:13;;;;;;;2.63;1.43;;;;;;;18.47;52.39;102368.34;5051133;28;20931;-65
2024/01/27 09:38:39;;;;;;;3.33;1.70;;;;;;;18.46;52.42;102369.53;5043078;28;20489;-64
2024/01/27 09:41:04;;;;;;;3.00;1.87;;;;;;;18.48;52.70;102366.34;5055114;28;20212;-64
2024/01/27 09:43:29;;;;;;;2.57;1.50;;;;;;;18.46;52.70;102369.53;5069512;28;20923;-64
2024/01/27 09:45:55;;;;;;;3.50;1.87;;;;;;;18.45;52.50;102361.28;5070151;28;20938;-65
2024/01/27 09:48:20;;;;;;;3.30;1.83;;;;;;;18.46;52.72;102363.81;5060773;28;20193;-64
2024/01/27 09:50:46;;;;;;;2.63;1.73;;;;;;;18.46;52.72;102360.13;5016970;28;20803;-64
2024/01/27 09:53:12;;;;;;;3.80;1.83;;;;;;;18.48;52.68;102355.75;5033267;28;20755;-65
2024/01/27 09:55:37;;;;;;;3.87;2.20;;;;;;;18.53;52.72;102364.19;5068367;28;20201;-65
2024/01/27 09:58:03;;;;;;;3.23;2.00;;;;;;;18.51;52.82;102357.13;5032357;28;20198;-64
2024/01/27 10:00:29;;;;;;;2.70;1.90;;;;;;;18.55;52.51;102350.41;5050107;28;20924;-65
2024/01/27 10:02:54;;;;;;;2.70;1.77;;;;;;;18.55;52.25;102350.41;5050732;28;20428;-64
2024/01/27 10:05:20;;;;;;;2.60;1.47;;;;;;;18.51;52.67;102357.13;5034889;28;20635;-65
2024/01/27 10:07:45;;;;;;;2.90;1.90;;;;;;;18.59;52.29;102362.00;5053557;28;20186;-65
2024/01/27 10:10:11;;;;;;;2.97;1.90;;;;;;;18.52;52.32;102356.75;5049890;28;20631;-64
2024/01/27 10:12:42;;;;;;;2.90;1.57;;;;;;;18.52;52.86;102358.81;5059896;28;20662;-64
2024/01/27 10:15:28;;;;;;;5.20;2.30;;;;;;;18.54;52.71;102363.00;5054520;28;20605;-65
2024/01/27 10:18:04;;;;;;;3.70;1.80;;;;;;;18.54;52.84;102367.88;5085297;28;20506;-65
2024/01/27 10:20:29;;;;;;;3.20;1.90;;;;;;;18.57;52.80;102364.38;5035119;28;20994;-64
2024/01/27 10:22:55;;;;;;;2.70;1.80;;;;;;;18.57;52.18;102348.03;5034888;28;20405;-64
2024/01/27 10:25:20;;;;;;;2.93;1.97;;;;;;;18.54;52.52;102347.84;5050821;28;20189;-65
2024/01/27 10:27:47;;;;;;;2.47;1.53;;;;;;;18.55;52.61;102353.25;5054758;28;20237;-64
2024/01/27 10:30:17;;;;;;;2.67;1.63;;;;;;;18.55;52.82;102349.53;5055255;28;20190;-65
2024/01/27 10:32:42;;;;;;;2.43;1.47;;;;;;;18.58;52.77;102349.75;5070816;28;20521;-64
2024/01/27 10:35:08;;;;;;;2.80;1.67;;;;;;;18.57;52.34;102348.03;5037068;28;20456;-65
2024/01/27 10:37:34;;;;;;;3.03;1.70;;;;;;;18.61;52.46;102348.25;5054234;28;20170;-66
2024/01/27 10:40:03;;;;;;;2.63;1.50;;;;;;;18.60;52.78;102341.66;5057147;28;20211;-65
2024/01/27 10:42:32;;;;;;;3.53;2.37;;;;;;;18.65;52.03;102343.50;5040023;28;21056;-65
2024/01/27 10:45:00;;;;;;;3.13;2.10;;;;;;;18.63;52.92;102335.28;5055955;28;21208;-65
2024/01/27 10:47:30;;;;;;;3.30;1.90;;;;;;;18.62;52.22;102342.16;5071718;28;20412;-64
2024/01/27 10:49:57;;;;;;;3.77;1.70;;;;;;;18.66;52.46;102340.31;5053941;28;20412;-65
2024/01/27 10:52:27;;;;;;;2.87;1.83;;;;;;;18.66;52.22;102331.75;5060808;28;20516;-65
2024/01/27 10:54:53;;;;;;;3.30;1.80;;;;;;;18.66;52.59;102334.59;5026735;28;20986;-65
2024/01/27 10:57:18;;;;;;;3.57;2.13;;;;;;;18.66;52.59;102340.31;5055276;28;20439;-64
2024/01/27 10:59:44;;;;;;;3.00;1.60;;;;;;;18.68;52.57;102343.72;5041281;28;20174;-64
2024/01/27 11:02:10;;;;;;;2.90;1.77;;;;;;;18.67;53.20;102335.47;5056712;28;20178;-65
2024/01/27 11:04:37;;;;;;;2.87;1.73;;;;;;;18.70;52.58;102326.19;5057546;28;20312;-66
2024/01/27 11:07:03;;;;;;;2.53;1.70;;;;;;;18.72;52.52;102324.69;5058541;28;20477;-64
2024/01/27 11:09:28;;;;;;;2.57;1.80;;;;;;;18.71;52.39;102320.13;5040993;28;20440;-64
2024/01/27 11:11:54;;;;;;;2.40;1.53;;;;;;;18.69;52.47;102311.06;5056727;28;20201;-64
2024/01/27 11:14:19;;;;;;;3.13;1.50;;;;;;;18.75;52.53;102308.88;5039844;28;20202;-64
2024/01/27 11:16:47;;;;;;;2.57;1.50;;;;;;;18.76;51.99;102307.72;5057142;28;20178;-64